Last reported at 2013-Aug-05 06:16 UTC.
Time now 2014-Apr-18 03:05 UTC

Location: N 54°24' W 132°24'.
View on Google Maps.

See reports from other nearby stations

Tides Stations Pressure Air Temp Water Temp Dewpoint Dewpoint depression Visibility Wind Speed Wind Dir Waves Ship positions

  
sailing weather and tide predictions

Current Weather: station 46145

date/time (UTC)wind fromknots sea level pressurealtimeterstation pressurevisibilityair tempwater tempwave heightnotes
2014-Apr-18 01:00 240 15 gusting 23 6.5 6.9 2.4
2014-Apr-18 00:00 230 15 gusting 23 7.1 6.8 1.9
2014-Apr-17 23:00 230 15 gusting 19 6.7 6.8 1.7
2014-Apr-17 22:00 220 11 gusting 15 7.1 6.9 1.5
2014-Apr-17 21:00 220 13 gusting 17 7.0 6.8 1.5
2014-Apr-17 20:00 220 11 gusting 15 7.1 6.7 1.4
2014-Apr-17 19:00 200 13 gusting 27 6.7 6.7 1.6
2014-Apr-17 18:00 200 13 gusting 17 6.8 6.7 1.4
2014-Apr-17 17:00 190 15 gusting 19 7.1 6.6 1.4
2014-Apr-17 14:00 200 11 gusting 13 6.7 6.6 1.4
2014-Apr-17 13:00 210 5 gusting 7 6.5 6.5 1.4
2014-Apr-17 12:00 230 9 gusting 11 6.6 6.6 1.4
2014-Apr-17 11:00 200 9 gusting 11 7.0 6.6 1.7
2014-Apr-17 10:00 110 19 gusting 25 6.7 6.6 1.8
2014-Apr-17 09:00 110 23 gusting 31 6.7 6.6 1.5
2014-Apr-17 08:00 120 13 gusting 15 6.9 6.7 1.6
2014-Apr-17 07:00 140 19 gusting 23 7.1 6.7 1.6
2014-Apr-17 06:00 140 21 gusting 25 7.4 6.7 1.5
2014-Apr-17 05:00 140 17 gusting 21 7.5 6.8 1.6
2014-Apr-17 04:00 140 15 gusting 19 7.3 6.7 1.6
2014-Apr-17 03:00 130 15 gusting 19 7.4 6.7 1.6
2014-Apr-17 02:00 110 19 gusting 23 7.3 6.7 1.7
2014-Apr-17 01:00 100 21 gusting 25 6.5 6.5 1.6
2014-Apr-17 00:00 100 23 gusting 27 6.4 6.8 1.5
2014-Apr-16 23:00 090 19 gusting 23 6.5 6.7 1.5
2014-Apr-16 22:00 100 21 gusting 27 6.5 6.7 1.5
2014-Apr-16 21:00 100 19 gusting 25 6.5 6.7 1.5
2014-Apr-16 20:00 100 17 gusting 21 6.4 6.7 1.7
2014-Apr-16 19:00 110 17 gusting 21 6.6 6.7 1.9
2014-Apr-16 18:00 100 19 gusting 21 6.7 6.7 1.9
2014-Apr-16 17:00 100 17 gusting 21 6.6 6.7 1.9
2014-Apr-16 16:00 090 17 gusting 21 6.7 6.6 1.9
2014-Apr-16 15:00 090 17 gusting 21 6.6 6.6 1.9
2014-Apr-16 14:00 100 15 gusting 19 6.7 6.7 1.7
2014-Apr-16 13:00 110 15 gusting 17 6.8 6.7 1.8
2014-Apr-16 12:00 130 15 gusting 17 6.8 6.6 1.7
2014-Apr-16 11:00 120 15 gusting 19 6.8 6.7 2.0
2014-Apr-16 10:00 130 13 gusting 15 7.0 6.7 1.8
2014-Apr-16 09:00 130 15 gusting 19 6.9 6.8 2.0
2014-Apr-16 08:00 110 11 gusting 15 7.1 6.8 2.1
2014-Apr-16 07:00 130 9 gusting 13 7.1 7.0 2.0
2014-Apr-16 06:00 130 9 gusting 13 7.1 7.0 2.1
2014-Apr-16 05:00 100 5 gusting 7 6.5 7.0 2.0
2014-Apr-16 04:00 050 1 6.7
2014-Apr-16 03:00 230 1 gusting 3 6.8 7.0 1.6